Brookings, Oregon
Current Conditions -  °F | °C
As of 7:56 AM on Monday 26 Jan 2015 (Local Time) from KBOK Reporting Station
Clear Clear  
Wind Chill: 47°   Ceiling: Unl
Heat Index: 49°   Visibility: 10mi
Dew Point: 47°   Wind: 6mph
Humidity: 93%   Direction: 150°SSE
Pressure: 30.01"   Gusts: NA
Location:  42.05°N, 124.28°W
Report Text: KBOK 261556Z AUTO 15005KT 10SM CLR 09/08 A3001 RMK AO2 T00940083 SLP164
Loading
Personal Weather Stations






























Interactive Weather Map New forecast layout! Learn more

10-Day Weather Forecast

Advertisements
Track Severe Weather on mobile